Temp: 7.4°C   Baro: 1005.0mb
  Wind: 2.0mph   Dir: W (274°)
  Rain: 5.6mm (0.0mm/hr)
  Solar: 0W/m2  Hum: 95%
 
Bath Spa Weather Historical Data
Daily Summary for October 27, 2019 Units:  Metric    English   Both
Next Day »
Daily Weekly Monthly Yearly Custom
  High: Low: Average:
Temperature: 12.4 °C 2.1 °C 5.9 °C
Dew Point: 7.1 °C 1.3 °C 3.9 °C
Humidity: 96% 65% 88%
Wind Speed: 11.1km/h 0.0km/h 1km/h
Wind Gust: 14.5km/h - -
Wind direction- - SSW
Pressure: 1026.6 hPa 1017.8 hPa -
Precipitation: 0.3 mm    
Historical Graphs
 
 
Tabular Data for October 27, 2019
Time Temperature Dew Point Pressure Wind direction Wind Speed Wind Gust Humidity Rainfall Rate (Hourly) solar
00:00 5.9 °C 5.0 °C 1017.8 hPa Calm     94% 0.0 mm 0.00 W/m2
00:05 5.9 °C 5.0 °C 1018.2 hPa Calm     94% 0.0 mm 0.00 W/m2
00:10 5.9 °C 5.0 °C 1018.2 hPa Calm     94% 0.0 mm 0.00 W/m2
00:15 5.9 °C 5.0 °C 1018.2 hPa Calm     94% 0.0 mm 0.00 W/m2
00:20 5.8 °C 4.9 °C 1018.2 hPa Calm     94% 0.0 mm 0.00 W/m2
00:25 5.8 °C 4.9 °C 1018.2 hPa Calm     94% 0.0 mm 0.00 W/m2
00:30 5.9 °C 5.0 °C 1018.2 hPa Calm     94% 0.0 mm 0.00 W/m2
00:35 5.8 °C 4.9 °C 1018.5 hPa Calm     94% 0.0 mm 0.00 W/m2
00:40 5.8 °C 4.9 °C 1018.5 hPa Calm     94% 0.0 mm 0.00 W/m2
00:45 5.8 °C 4.9 °C 1018.8 hPa Calm     94% 0.0 mm 0.00 W/m2
00:50 5.7 °C 4.8 °C 1018.8 hPa Calm     94% 0.0 mm 0.00 W/m2
00:55 5.6 °C 4.7 °C 1018.8 hPa Calm     94% 0.0 mm 0.00 W/m2
01:00 5.6 °C 4.7 °C 1018.8 hPa Calm     94% 0.0 mm 0.00 W/m2
01:05 5.5 °C 4.6 °C 1019.2 hPa Calm     94% 0.0 mm 0.00 W/m2
01:10 5.5 °C 4.6 °C 1019.2 hPa Calm     94% 0.0 mm 0.00 W/m2
01:15 5.4 °C 4.5 °C 1019.2 hPa Calm     94% 0.0 mm 0.00 W/m2
01:20 5.4 °C 4.7 °C 1019.5 hPa Calm     95% 0.0 mm 0.00 W/m2
01:25 5.3 °C 4.6 °C 1019.5 hPa Calm     95% 0.0 mm 0.00 W/m2
01:30 5.2 °C 4.3 °C 1019.5 hPa Calm     94% 0.0 mm 0.00 W/m2
01:35 5.1 °C 4.2 °C 1019.5 hPa Calm     94% 0.0 mm 0.00 W/m2
01:40 5.0 °C 4.3 °C 1019.5 hPa Calm     95% 0.0 mm 0.00 W/m2
01:45 5.0 °C 4.3 °C 1019.5 hPa Calm     95% 0.0 mm 0.00 W/m2
01:50 4.8 °C 4.1 °C 1019.5 hPa Calm     95% 0.0 mm 0.00 W/m2
01:55 4.7 °C 4.0 °C 1019.5 hPa Calm     95% 0.0 mm 0.00 W/m2
01:00 4.6 °C 3.9 °C 1019.5 hPa Calm     95% 0.0 mm 0.00 W/m2
01:05 4.6 °C 3.7 °C 1019.9 hPa Calm     94% 0.0 mm 0.00 W/m2
01:10 4.5 °C 3.8 °C 1019.9 hPa Calm     95% 0.0 mm 0.00 W/m2
01:15 4.4 °C 3.7 °C 1020.2 hPa Calm     95% 0.0 mm 0.00 W/m2
01:20 4.3 °C 3.6 °C 1020.2 hPa Calm     95% 0.0 mm 0.00 W/m2
01:25 4.3 °C 3.6 °C 1020.2 hPa Calm     95% 0.0 mm 0.00 W/m2
01:30 4.3 °C 3.6 °C 1020.2 hPa Calm     95% 0.0 mm 0.00 W/m2
01:35 4.2 °C 3.5 °C 1020.2 hPa Calm     95% 0.0 mm 0.00 W/m2
01:40 4.2 °C 3.5 °C 1020.2 hPa Calm     95% 0.0 mm 0.00 W/m2
01:45 4.2 °C 3.5 °C 1020.2 hPa Calm     95% 0.0 mm 0.00 W/m2
01:50 4.2 °C 3.5 °C 1020.2 hPa Calm     95% 0.0 mm 0.00 W/m2
01:55 4.2 °C 3.5 °C 1020.2 hPa Calm     95% 0.0 mm 0.00 W/m2
02:00 4.1 °C 3.4 °C 1020.2 hPa Calm     95% 0.0 mm 0.00 W/m2
02:05 4.1 °C 3.4 °C 1020.2 hPa Calm     95% 0.0 mm 0.00 W/m2
02:10 4.1 °C 3.4 °C 1020.2 hPa Calm     95% 0.0 mm 0.00 W/m2
02:15 4.0 °C 3.3 °C 1020.2 hPa Calm     95% 0.0 mm 0.00 W/m2
02:20 3.8 °C 3.1 °C 1020.2 hPa Calm     95% 0.0 mm 0.00 W/m2
02:25 3.7 °C 3.0 °C 1020.2 hPa Calm     95% 0.0 mm 0.00 W/m2
02:30 3.8 °C 3.1 °C 1019.9 hPa Calm     95% 0.0 mm 0.00 W/m2
02:35 3.9 °C 3.2 °C 1020.2 hPa Calm     95% 0.0 mm 0.00 W/m2
02:40 3.9 °C 3.2 °C 1020.2 hPa Calm     95% 0.0 mm 0.00 W/m2
02:45 3.8 °C 3.1 °C 1020.2 hPa Calm     95% 0.0 mm 0.00 W/m2
02:50 3.7 °C 3.0 °C 1020.2 hPa Calm     95% 0.0 mm 0.00 W/m2
02:55 3.6 °C 2.9 °C 1020.2 hPa Calm     95% 0.0 mm 0.00 W/m2
03:00 3.5 °C 2.8 °C 1020.2 hPa Calm     95% 0.0 mm 0.00 W/m2
03:05 3.6 °C 2.9 °C 1020.2 hPa Calm     95% 0.0 mm 0.00 W/m2
03:10 3.6 °C 2.9 °C 1020.5 hPa Calm     95% 0.0 mm 0.00 W/m2
03:15 3.5 °C 2.8 °C 1020.5 hPa Calm     95% 0.0 mm 0.00 W/m2
03:20 3.4 °C 2.7 °C 1020.5 hPa Calm     95% 0.0 mm 0.00 W/m2
03:25 3.4 °C 2.7 °C 1020.5 hPa Calm     95% 0.0 mm 0.00 W/m2
03:30 3.4 °C 2.7 °C 1020.5 hPa Calm     95% 0.0 mm 0.00 W/m2
03:35 3.6 °C 2.9 °C 1020.5 hPa WNW 3.2 km/h 4.8 km/h 95% 0.3 mm 0.00 W/m2
03:40 3.6 °C 2.9 °C 1020.5 hPa Calm   1.6 km/h 95% 0.3 mm 0.00 W/m2
03:45 3.5 °C 2.8 °C 1020.5 hPa Calm     95% 0.3 mm 0.00 W/m2
03:50 3.5 °C 2.8 °C 1020.5 hPa Calm     95% 0.3 mm 0.00 W/m2
03:55 3.5 °C 2.8 °C 1020.9 hPa Calm     95% 0.3 mm 0.00 W/m2
04:00 3.6 °C 2.9 °C 1020.9 hPa Calm     95% 0.3 mm 0.00 W/m2
04:05 3.5 °C 2.8 °C 1020.9 hPa Calm     95% 0.3 mm 0.00 W/m2
04:10 3.3 °C 2.6 °C 1020.9 hPa Calm     95% 0.3 mm 0.00 W/m2
04:15 3.3 °C 2.6 °C 1021.2 hPa Calm     95% 0.3 mm 0.00 W/m2
04:20 3.2 °C 2.5 °C 1021.2 hPa Calm   1.6 km/h 95% 0.3 mm 0.00 W/m2
04:25 3.2 °C 2.5 °C 1021.2 hPa Calm   3.2 km/h 95% 0.3 mm 0.00 W/m2
04:30 3.1 °C 2.4 °C 1021.2 hPa Calm     95% 0.3 mm 0.00 W/m2
04:35 3.1 °C 2.4 °C 1021.2 hPa Calm     95% 0.0 mm 0.00 W/m2
04:40 3.1 °C 2.4 °C 1021.2 hPa Calm     95% 0.0 mm 0.00 W/m2
04:45 3.1 °C 2.4 °C 1021.6 hPa Calm   1.6 km/h 95% 0.0 mm 0.00 W/m2
04:50 3.1 °C 2.4 °C 1021.6 hPa Calm     95% 0.0 mm 0.00 W/m2
04:55 3.1 °C 2.4 °C 1021.6 hPa Calm     95% 0.0 mm 0.00 W/m2
05:00 3.0 °C 2.3 °C 1021.6 hPa Calm     95% 0.0 mm 0.00 W/m2
05:05 3.0 °C 2.3 °C 1021.6 hPa Calm     95% 0.0 mm 0.00 W/m2
05:10 2.9 °C 2.2 °C 1021.6 hPa Calm     95% 0.0 mm 0.00 W/m2
05:15 2.9 °C 2.2 °C 1021.6 hPa Calm     95% 0.0 mm 0.00 W/m2
05:20 2.8 °C 2.1 °C 1021.9 hPa Calm     95% 0.0 mm 0.00 W/m2
05:25 2.8 °C 2.1 °C 1021.9 hPa Calm     95% 0.0 mm 0.00 W/m2
05:30 2.7 °C 2.0 °C 1021.9 hPa Calm     95% 0.0 mm 0.00 W/m2
05:35 2.7 °C 2.0 °C 1022.2 hPa Calm     95% 0.0 mm 0.00 W/m2
05:40 2.6 °C 1.9 °C 1022.2 hPa Calm     95% 0.0 mm 0.00 W/m2
05:45 2.6 °C 1.9 °C 1022.2 hPa Calm   3.2 km/h 95% 0.0 mm 0.00 W/m2
05:50 2.6 °C 1.9 °C 1022.2 hPa Calm     95% 0.0 mm 0.00 W/m2
05:55 2.6 °C 1.9 °C 1022.2 hPa Calm   1.6 km/h 95% 0.0 mm 0.00 W/m2
06:00 2.6 °C 1.9 °C 1022.2 hPa Calm     95% 0.0 mm 0.00 W/m2
06:05 2.6 °C 1.9 °C 1022.2 hPa Calm     95% 0.0 mm 0.00 W/m2
06:10 2.6 °C 1.9 °C 1022.2 hPa Calm     95% 0.0 mm 0.00 W/m2
06:15 2.5 °C 1.8 °C 1022.2 hPa Calm     95% 0.0 mm 0.00 W/m2
06:20 2.4 °C 1.7 °C 1022.6 hPa Calm     95% 0.0 mm 0.00 W/m2
06:25 2.2 °C 1.5 °C 1022.6 hPa Calm     95% 0.0 mm 0.00 W/m2
06:30 2.2 °C 1.5 °C 1022.6 hPa Calm     95% 0.0 mm 0.00 W/m2
06:35 2.2 °C 1.5 °C 1022.6 hPa Calm     95% 0.0 mm 0.00 W/m2
06:40 2.2 °C 1.5 °C 1022.6 hPa Calm     95% 0.0 mm 0.00 W/m2
06:45 2.2 °C 1.5 °C 1022.6 hPa Calm     95% 0.0 mm 0.00 W/m2
06:50 2.2 °C 1.5 °C 1022.9 hPa Calm     95% 0.0 mm 0.00 W/m2
06:55 2.2 °C 1.5 °C 1022.9 hPa Calm     95% 0.0 mm 0.00 W/m2
07:00 2.2 °C 1.5 °C 1022.9 hPa Calm     95% 0.0 mm 5.00 W/m2
07:05 2.1 °C 1.4 °C 1022.9 hPa WNW 1.4 km/h 3.2 km/h 95% 0.0 mm 9.00 W/m2
07:10 2.1 °C 1.4 °C 1023.2 hPa Calm   3.2 km/h 95% 0.0 mm 12.00 W/m2
07:15 2.2 °C 1.5 °C 1023.2 hPa Calm   1.6 km/h 95% 0.0 mm 19.00 W/m2
07:20 2.3 °C 1.6 °C 1023.2 hPa Calm   1.6 km/h 95% 0.0 mm 25.00 W/m2
07:25 2.3 °C 1.6 °C 1023.2 hPa Calm     95% 0.0 mm 28.00 W/m2
07:30 2.2 °C 1.5 °C 1023.2 hPa Calm     95% 0.0 mm 33.00 W/m2
07:35 2.3 °C 1.6 °C 1023.6 hPa Calm     95% 0.0 mm 39.00 W/m2
07:40 2.4 °C 1.7 °C 1023.6 hPa Calm     95% 0.0 mm 44.00 W/m2
07:45 2.5 °C 1.8 °C 1023.6 hPa Calm     95% 0.0 mm 47.00 W/m2
07:50 2.6 °C 1.9 °C 1023.9 hPa Calm     95% 0.0 mm 51.00 W/m2
07:55 2.6 °C 1.9 °C 1023.9 hPa Calm     95% 0.0 mm 53.00 W/m2
08:00 2.6 °C 1.9 °C 1023.9 hPa Calm     95% 0.0 mm 53.00 W/m2
08:05 2.7 °C 2.0 °C 1023.9 hPa Calm     95% 0.0 mm 53.00 W/m2
08:10 2.8 °C 2.1 °C 1023.9 hPa Calm     95% 0.0 mm 54.00 W/m2
08:15 2.9 °C 2.2 °C 1023.9 hPa Calm     95% 0.0 mm 56.00 W/m2
08:20 3.2 °C 2.5 °C 1023.9 hPa Calm     95% 0.0 mm 76.00 W/m2
08:25 3.6 °C 2.9 °C 1023.9 hPa Calm     95% 0.0 mm 84.00 W/m2
08:30 3.6 °C 2.9 °C 1023.9 hPa Calm   1.6 km/h 95% 0.0 mm 65.00 W/m2
08:35 3.8 °C 3.2 °C 1024.3 hPa Calm     96% 0.0 mm 95.00 W/m2
08:40 3.9 °C 3.3 °C 1024.3 hPa Calm     96% 0.0 mm 63.00 W/m2
08:45 4.4 °C 3.8 °C 1024.3 hPa Calm     96% 0.0 mm 100.00 W/m2
08:50 4.2 °C 3.6 °C 1024.6 hPa Calm     96% 0.0 mm 128.00 W/m2
08:55 4.6 °C 4.0 °C 1024.6 hPa Calm     96% 0.0 mm 123.00 W/m2
09:00 5.1 °C 4.5 °C 1024.6 hPa Calm     96% 0.0 mm 151.00 W/m2
09:05 4.9 °C 4.3 °C 1024.6 hPa Calm     96% 0.0 mm 188.00 W/m2
09:10 4.8 °C 4.2 °C 1024.6 hPa Calm     96% 0.0 mm 155.00 W/m2
09:15 5.0 °C 4.4 °C 1024.6 hPa Calm     96% 0.0 mm 163.00 W/m2
09:20 5.6 °C 5.0 °C 1024.6 hPa Calm     96% 0.0 mm 174.00 W/m2
09:25 5.6 °C 5.0 °C 1024.6 hPa Calm   3.2 km/h 96% 0.0 mm 204.00 W/m2
09:30 6.1 °C 5.5 °C 1024.6 hPa Calm     96% 0.0 mm 230.00 W/m2
09:35 6.2 °C 5.5 °C 1024.9 hPa WNW 1.4 km/h 1.6 km/h 95% 0.0 mm 190.00 W/m2
09:40 6.1 °C 5.4 °C 1024.6 hPa WNW 6.4 km/h 8.0 km/h 95% 0.0 mm 190.00 W/m2
09:45 6.3 °C 5.6 °C 1024.6 hPa WNW 4.7 km/h 8.0 km/h 95% 0.0 mm 243.00 W/m2
09:50 6.7 °C 5.8 °C 1024.9 hPa WNW 4.7 km/h 6.4 km/h 94% 0.0 mm 262.00 W/m2
09:55 7.0 °C 6.1 °C 1024.9 hPa WNW 1.4 km/h 4.8 km/h 94% 0.0 mm 260.00 W/m2
10:00 7.2 °C 6.1 °C 1024.6 hPa Calm   4.8 km/h 93% 0.0 mm 295.00 W/m2
10:05 7.8 °C 6.4 °C 1024.9 hPa Calm   3.2 km/h 91% 0.0 mm 316.00 W/m2
10:10 8.2 °C 6.7 °C 1024.9 hPa WNW 3.2 km/h 6.4 km/h 90% 0.0 mm 304.00 W/m2
10:15 8.2 °C 6.3 °C 1024.9 hPa WNW 4.7 km/h 4.8 km/h 88% 0.0 mm 285.00 W/m2
10:20 8.2 °C 6.2 °C 1024.9 hPa WNW 4.7 km/h 8.0 km/h 87% 0.0 mm 269.00 W/m2
10:25 7.9 °C 5.7 °C 1024.9 hPa WNW 6.4 km/h 8.0 km/h 86% 0.0 mm 306.00 W/m2
10:30 8.1 °C 5.7 °C 1024.9 hPa WNW 3.2 km/h 6.4 km/h 85% 0.0 mm 325.00 W/m2
10:35 8.4 °C 6.2 °C 1024.9 hPa Calm   4.8 km/h 86% 0.0 mm 343.00 W/m2
10:40 8.6 °C 6.2 °C 1024.9 hPa WNW 6.4 km/h 8.0 km/h 85% 0.0 mm 322.00 W/m2
10:45 8.4 °C 5.9 °C 1024.9 hPa WNW 3.2 km/h 11.3 km/h 84% 0.0 mm 316.00 W/m2
10:50 8.8 °C 6.2 °C 1024.9 hPa WNW 6.4 km/h 6.4 km/h 84% 0.0 mm 364.00 W/m2
10:55 8.9 °C 6.2 °C 1024.9 hPa West 7.9 km/h 11.3 km/h 83% 0.0 mm 376.00 W/m2
11:00 9.0 °C 6.3 °C 1024.9 hPa West 9.7 km/h 9.7 km/h 83% 0.0 mm 387.00 W/m2
11:05 9.5 °C 6.8 °C 1024.9 hPa West 1.4 km/h 8.0 km/h 83% 0.0 mm 381.00 W/m2
11:10 9.4 °C 6.3 °C 1024.9 hPa WNW 7.9 km/h 9.7 km/h 81% 0.0 mm 396.00 W/m2
11:15 9.4 °C 6.3 °C 1024.9 hPa NW 7.9 km/h 12.9 km/h 81% 0.0 mm 369.00 W/m2
11:20 10.1 °C 7.0 °C 1024.9 hPa West 7.9 km/h 11.3 km/h 81% 0.0 mm 387.00 W/m2
11:25 9.9 °C 6.2 °C 1024.9 hPa NW 4.7 km/h 9.7 km/h 78% 0.0 mm 401.00 W/m2
11:30 10.1 °C 6.4 °C 1024.9 hPa NW 4.7 km/h 4.8 km/h 78% 0.0 mm 362.00 W/m2
11:35 10.2 °C 6.2 °C 1024.9 hPa NNE 1.4 km/h 11.3 km/h 76% 0.0 mm 413.00 W/m2
11:40 10.5 °C 6.4 °C 1024.9 hPa WNW 4.7 km/h 9.7 km/h 76% 0.0 mm 380.00 W/m2
11:45 10.8 °C 6.7 °C 1024.9 hPa Calm   4.8 km/h 76% 0.0 mm 427.00 W/m2
11:50 10.8 °C 6.5 °C 1024.9 hPa WNW 6.4 km/h 8.0 km/h 75% 0.0 mm 413.00 W/m2
11:55 10.7 °C 5.9 °C 1024.6 hPa WNW 6.4 km/h 9.7 km/h 72% 0.0 mm 399.00 W/m2
12:00 10.7 °C 5.7 °C 1024.6 hPa NW 4.7 km/h 9.7 km/h 71% 0.0 mm 374.00 W/m2
12:05 11.1 °C 5.8 °C 1024.6 hPa NNW 3.2 km/h 9.7 km/h 70% 0.0 mm 420.00 W/m2
12:10 11.1 °C 5.8 °C 1024.6 hPa Calm   3.2 km/h 70% 0.0 mm 445.00 W/m2
12:15 11.6 °C 6.1 °C 1024.6 hPa NNW 3.2 km/h 4.8 km/h 69% 0.0 mm 441.00 W/m2
12:20 11.9 °C 6.2 °C 1024.3 hPa Calm   6.4 km/h 68% 0.0 mm 360.00 W/m2
12:25 11.3 °C 5.2 °C 1024.3 hPa NNE 4.7 km/h 4.8 km/h 66% 0.0 mm 396.00 W/m2
12:30 11.3 °C 5.2 °C 1024.3 hPa NNE 4.7 km/h 11.3 km/h 66% 0.0 mm 355.00 W/m2
12:35 12.3 °C 5.9 °C 1024.3 hPa NNW 4.7 km/h 9.7 km/h 65% 0.0 mm 306.00 W/m2
12:40 11.3 °C 5.8 °C 1024.3 hPa NNW 6.4 km/h 8.0 km/h 69% 0.0 mm 315.00 W/m2
12:45 11.2 °C 5.9 °C 1024.3 hPa North 6.4 km/h 11.3 km/h 70% 0.0 mm 323.00 W/m2
12:50 11.3 °C 6.2 °C 1024.6 hPa Calm   6.4 km/h 71% 0.0 mm 403.00 W/m2
12:55 11.8 °C 6.5 °C 1024.3 hPa North 6.4 km/h 9.7 km/h 70% 0.0 mm 396.00 W/m2
13:00 11.4 °C 5.9 °C 1024.6 hPa North 3.2 km/h 6.4 km/h 69% 0.0 mm 367.00 W/m2
13:05 11.5 °C 6.0 °C 1024.6 hPa North 3.2 km/h 12.9 km/h 69% 0.0 mm 410.00 W/m2
13:10 11.8 °C 6.1 °C 1024.3 hPa North 3.2 km/h 9.7 km/h 68% 0.0 mm 373.00 W/m2
13:15 11.8 °C 6.1 °C 1024.3 hPa North 1.4 km/h 1.6 km/h 68% 0.0 mm 403.00 W/m2
13:20 11.7 °C 6.0 °C 1024.3 hPa NW 3.2 km/h 11.3 km/h 68% 0.0 mm 387.00 W/m2
13:25 12.4 °C 7.1 °C 1024.3 hPa NNW 3.2 km/h 6.4 km/h 70% 0.0 mm 364.00 W/m2
13:30 12.3 °C 6.1 °C 1024.6 hPa NNW 1.4 km/h 6.4 km/h 66% 0.0 mm 390.00 W/m2
13:35 11.9 °C 6.2 °C 1024.6 hPa North 9.7 km/h 12.9 km/h 68% 0.0 mm 360.00 W/m2
13:40 12.4 °C 6.7 °C 1024.6 hPa NNE 1.4 km/h 8.0 km/h 68% 0.0 mm 378.00 W/m2
13:45 12.3 °C 6.3 °C 1024.6 hPa NNE 4.7 km/h 6.4 km/h 67% 0.0 mm 366.00 W/m2
13:50 11.7 °C 5.8 °C 1024.6 hPa NW 11.1 km/h 11.3 km/h 67% 0.0 mm 322.00 W/m2
13:55 11.4 °C 5.9 °C 1024.6 hPa WNW 3.2 km/h 8.0 km/h 69% 0.0 mm 241.00 W/m2
14:00 11.9 °C 6.2 °C 1024.6 hPa WNW 1.4 km/h 6.4 km/h 68% 0.0 mm 323.00 W/m2
14:05 12.3 °C 6.6 °C 1024.6 hPa NW 3.2 km/h 6.4 km/h 68% 0.0 mm 322.00 W/m2
14:10 12.2 °C 6.7 °C 1024.6 hPa NW 7.9 km/h 8.0 km/h 69% 0.0 mm 322.00 W/m2
14:15 11.8 °C 6.1 °C 1024.6 hPa NE 9.7 km/h 14.5 km/h 68% 0.0 mm 276.00 W/m2
14:20 11.6 °C 5.9 °C 1024.6 hPa NNW 7.9 km/h 11.3 km/h 68% 0.0 mm 244.00 W/m2
14:25 11.6 °C 5.9 °C 1024.6 hPa Calm   6.4 km/h 68% 0.0 mm 292.00 W/m2
14:30 11.7 °C 6.0 °C 1024.6 hPa North 6.4 km/h 6.4 km/h 68% 0.0 mm 214.00 W/m2
14:35 11.9 °C 6.4 °C 1024.6 hPa Calm   3.2 km/h 69% 0.0 mm 241.00 W/m2
14:40 11.9 °C 6.2 °C 1024.6 hPa North 3.2 km/h 6.4 km/h 68% 0.0 mm 171.00 W/m2
14:45 11.7 °C 5.8 °C 1024.6 hPa North 4.7 km/h 8.0 km/h 67% 0.0 mm 128.00 W/m2
14:50 11.5 °C 5.8 °C 1024.6 hPa North 7.9 km/h 9.7 km/h 68% 0.0 mm 179.00 W/m2
14:55 11.4 °C 5.7 °C 1024.6 hPa North 3.2 km/h 6.4 km/h 68% 0.0 mm 128.00 W/m2
15:00 11.4 °C 5.9 °C 1024.6 hPa North 7.9 km/h 8.0 km/h 69% 0.0 mm 149.00 W/m2
15:05 11.3 °C 6.0 °C 1024.6 hPa North 7.9 km/h 9.7 km/h 70% 0.0 mm 134.00 W/m2
15:10 11.2 °C 5.7 °C 1024.6 hPa Calm   9.7 km/h 69% 0.0 mm 109.00 W/m2
15:15 11.2 °C 5.9 °C 1024.6 hPa North 3.2 km/h 4.8 km/h 70% 0.0 mm 111.00 W/m2
15:20 11.1 °C 5.8 °C 1024.6 hPa Calm   4.8 km/h 70% 0.0 mm 114.00 W/m2
15:25 11.2 °C 6.1 °C 1024.6 hPa Calm     71% 0.0 mm 114.00 W/m2
15:30 11.3 °C 6.2 °C 1024.6 hPa Calm     71% 0.0 mm 107.00 W/m2
15:35 11.3 °C 6.2 °C 1024.6 hPa Calm     71% 0.0 mm 83.00 W/m2
15:40 11.3 °C 6.2 °C 1024.9 hPa Calm     71% 0.0 mm 84.00 W/m2
15:45 11.2 °C 6.1 °C 1024.9 hPa Calm     71% 0.0 mm 79.00 W/m2
15:50 11.1 °C 6.2 °C 1024.9 hPa Calm     72% 0.0 mm 67.00 W/m2
15:55 10.9 °C 6.1 °C 1024.9 hPa Calm     72% 0.0 mm 60.00 W/m2
16:00 10.8 °C 6.0 °C 1024.9 hPa Calm     72% 0.0 mm 51.00 W/m2
16:05 10.7 °C 5.9 °C 1024.9 hPa Calm     72% 0.0 mm 44.00 W/m2
16:10 10.8 °C 6.2 °C 1024.9 hPa Calm     73% 0.0 mm 40.00 W/m2
16:15 10.8 °C 6.4 °C 1024.9 hPa Calm     74% 0.0 mm 35.00 W/m2
16:20 10.6 °C 6.2 °C 1024.9 hPa Calm     74% 0.0 mm 30.00 W/m2
16:25 10.2 °C 6.0 °C 1024.9 hPa Calm     75% 0.0 mm 25.00 W/m2
16:30 10.1 °C 5.9 °C 1024.9 hPa Calm     75% 0.0 mm 21.00 W/m2
16:35 9.8 °C 5.6 °C 1024.9 hPa Calm     75% 0.0 mm 18.00 W/m2
16:40 9.7 °C 5.5 °C 1024.9 hPa Calm     75% 0.0 mm 12.00 W/m2
16:45 9.4 °C 5.4 °C 1024.9 hPa Calm     76% 0.0 mm 9.00 W/m2
16:50 9.1 °C 5.3 °C 1024.9 hPa Calm     77% 0.0 mm 5.00 W/m2
16:55 8.7 °C 4.9 °C 1025.3 hPa Calm     77% 0.0 mm 0.00 W/m2
17:00 8.4 °C 5.0 °C 1025.3 hPa Calm     79% 0.0 mm 0.00 W/m2
17:05 8.2 °C 5.0 °C 1025.3 hPa Calm     80% 0.0 mm 0.00 W/m2
17:10 8.2 °C 5.1 °C 1025.3 hPa Calm     81% 0.0 mm 0.00 W/m2
17:15 8.1 °C 5.2 °C 1025.3 hPa Calm     82% 0.0 mm 0.00 W/m2
17:20 7.6 °C 4.7 °C 1025.3 hPa Calm     82% 0.0 mm 0.00 W/m2
17:25 7.6 °C 4.9 °C 1025.3 hPa Calm     83% 0.0 mm 0.00 W/m2
17:30 7.5 °C 5.0 °C 1025.3 hPa Calm     84% 0.0 mm 0.00 W/m2
17:35 7.3 °C 4.8 °C 1025.3 hPa Calm     84% 0.0 mm 0.00 W/m2
17:40 7.2 °C 4.8 °C 1025.6 hPa Calm     85% 0.0 mm 0.00 W/m2
17:45 7.1 °C 4.7 °C 1025.6 hPa Calm     85% 0.0 mm 0.00 W/m2
17:50 6.8 °C 4.5 °C 1025.6 hPa Calm     85% 0.0 mm 0.00 W/m2
17:55 6.6 °C 4.4 °C 1025.6 hPa Calm     86% 0.0 mm 0.00 W/m2
18:00 6.4 °C 4.2 °C 1025.6 hPa Calm     86% 0.0 mm 0.00 W/m2
18:05 6.4 °C 4.4 °C 1025.6 hPa Calm     87% 0.0 mm 0.00 W/m2
18:10 6.2 °C 4.2 °C 1025.6 hPa Calm     87% 0.0 mm 0.00 W/m2
18:15 6.1 °C 4.1 °C 1025.6 hPa Calm     87% 0.0 mm 0.00 W/m2
18:20 6.1 °C 4.1 °C 1025.6 hPa Calm     87% 0.0 mm 0.00 W/m2
18:25 5.9 °C 4.1 °C 1025.6 hPa Calm     88% 0.0 mm 0.00 W/m2
18:30 5.8 °C 4.0 °C 1025.6 hPa Calm     88% 0.0 mm 0.00 W/m2
18:35 5.7 °C 3.9 °C 1025.6 hPa Calm     88% 0.0 mm 0.00 W/m2
18:40 5.7 °C 3.9 °C 1025.6 hPa Calm     88% 0.0 mm 0.00 W/m2
18:45 5.6 °C 3.8 °C 1025.6 hPa Calm     88% 0.0 mm 0.00 W/m2
18:50 5.5 °C 3.8 °C 1025.6 hPa Calm     89% 0.0 mm 0.00 W/m2
18:55 5.3 °C 3.6 °C 1025.6 hPa Calm     89% 0.0 mm 0.00 W/m2
19:00 5.2 °C 3.5 °C 1025.6 hPa Calm     89% 0.0 mm 0.00 W/m2
19:05 5.1 °C 3.4 °C 1025.6 hPa Calm     89% 0.0 mm 0.00 W/m2
19:10 5.0 °C 3.3 °C 1025.6 hPa Calm     89% 0.0 mm 0.00 W/m2
19:15 5.1 °C 3.4 °C 1025.6 hPa Calm     89% 0.0 mm 0.00 W/m2
19:20 4.9 °C 3.2 °C 1025.6 hPa Calm     89% 0.0 mm 0.00 W/m2
19:25 4.9 °C 3.4 °C 1025.6 hPa Calm     90% 0.0 mm 0.00 W/m2
19:30 4.9 °C 3.4 °C 1025.3 hPa Calm     90% 0.0 mm 0.00 W/m2
19:35 4.7 °C 3.2 °C 1025.3 hPa Calm     90% 0.0 mm 0.00 W/m2
19:40 4.7 °C 3.2 °C 1025.6 hPa Calm     90% 0.0 mm 0.00 W/m2
19:45 4.6 °C 3.1 °C 1025.6 hPa Calm     90% 0.0 mm 0.00 W/m2
19:50 4.4 °C 2.9 °C 1025.6 hPa Calm     90% 0.0 mm 0.00 W/m2
19:55 4.3 °C 2.8 °C 1025.6 hPa Calm     90% 0.0 mm 0.00 W/m2
20:00 4.3 °C 2.8 °C 1025.6 hPa Calm     90% 0.0 mm 0.00 W/m2
20:05 4.3 °C 3.0 °C 1025.6 hPa Calm     91% 0.0 mm 0.00 W/m2
20:10 4.3 °C 3.0 °C 1025.6 hPa Calm     91% 0.0 mm 0.00 W/m2
20:15 4.3 °C 3.0 °C 1025.6 hPa Calm     91% 0.0 mm 0.00 W/m2
20:20 4.2 °C 2.9 °C 1025.6 hPa Calm     91% 0.0 mm 0.00 W/m2
20:25 4.1 °C 2.8 °C 1025.6 hPa Calm     91% 0.0 mm 0.00 W/m2
20:30 4.0 °C 2.7 °C 1025.6 hPa Calm     91% 0.0 mm 0.00 W/m2
20:35 4.0 °C 2.7 °C 1025.6 hPa Calm   1.6 km/h 91% 0.0 mm 0.00 W/m2
20:40 3.9 °C 2.6 °C 1025.6 hPa Calm   1.6 km/h 91% 0.0 mm 0.00 W/m2
20:45 3.8 °C 2.5 °C 1025.6 hPa Calm     91% 0.0 mm 0.00 W/m2
20:50 3.7 °C 2.4 °C 1025.6 hPa Calm   1.6 km/h 91% 0.0 mm 0.00 W/m2
20:55 3.6 °C 2.3 °C 1025.6 hPa Calm     91% 0.0 mm 0.00 W/m2
21:00 3.6 °C 2.3 °C 1026.0 hPa Calm     91% 0.0 mm 0.00 W/m2
21:05 3.6 °C 2.3 °C 1026.0 hPa Calm     91% 0.0 mm 0.00 W/m2
21:10 3.5 °C 2.3 °C 1026.0 hPa Calm     92% 0.0 mm 0.00 W/m2
21:15 3.4 °C 2.2 °C 1026.0 hPa Calm     92% 0.0 mm 0.00 W/m2
21:20 3.4 °C 2.2 °C 1026.3 hPa Calm     92% 0.0 mm 0.00 W/m2
21:25 3.4 °C 2.2 °C 1026.3 hPa Calm     92% 0.0 mm 0.00 W/m2
21:30 3.4 °C 2.2 °C 1026.3 hPa Calm     92% 0.0 mm 0.00 W/m2
21:35 3.3 °C 2.1 °C 1026.3 hPa Calm     92% 0.0 mm 0.00 W/m2
21:40 3.3 °C 2.1 °C 1026.3 hPa Calm     92% 0.0 mm 0.00 W/m2
21:45 3.3 °C 2.1 °C 1026.6 hPa Calm     92% 0.0 mm 0.00 W/m2
21:50 3.3 °C 2.1 °C 1026.3 hPa Calm     92% 0.0 mm 0.00 W/m2
21:55 3.3 °C 2.1 °C 1026.3 hPa Calm     92% 0.0 mm 0.00 W/m2
22:00 3.2 °C 2.0 °C 1026.3 hPa Calm     92% 0.0 mm 0.00 W/m2
22:05 3.1 °C 1.9 °C 1026.3 hPa Calm     92% 0.0 mm 0.00 W/m2
22:10 3.2 °C 2.0 °C 1026.3 hPa Calm     92% 0.0 mm 0.00 W/m2
22:15 3.1 °C 1.9 °C 1026.3 hPa Calm     92% 0.0 mm 0.00 W/m2
22:20 3.1 °C 1.9 °C 1026.3 hPa Calm   1.6 km/h 92% 0.0 mm 0.00 W/m2
22:25 3.1 °C 1.9 °C 1026.3 hPa Calm     92% 0.0 mm 0.00 W/m2
22:30 3.0 °C 1.8 °C 1026.3 hPa Calm     92% 0.0 mm 0.00 W/m2
22:35 2.9 °C 1.7 °C 1026.3 hPa Calm     92% 0.0 mm 0.00 W/m2
22:40 2.9 °C 1.7 °C 1026.3 hPa Calm   1.6 km/h 92% 0.0 mm 0.00 W/m2
22:45 2.9 °C 1.7 °C 1026.3 hPa Calm     92% 0.0 mm 0.00 W/m2
22:50 2.9 °C 1.7 °C 1026.0 hPa Calm   1.6 km/h 92% 0.0 mm 0.00 W/m2
22:55 2.8 °C 1.6 °C 1026.3 hPa Calm     92% 0.0 mm 0.00 W/m2
23:00 2.8 °C 1.6 °C 1026.3 hPa Calm     92% 0.0 mm 0.00 W/m2
23:05 2.8 °C 1.6 °C 1026.3 hPa Calm     92% 0.0 mm 0.00 W/m2
23:10 2.8 °C 1.6 °C 1026.3 hPa Calm     92% 0.0 mm 0.00 W/m2
23:15 2.7 °C 1.5 °C 1026.3 hPa Calm     92% 0.0 mm 0.00 W/m2
23:20 2.6 °C 1.6 °C 1026.3 hPa Calm     93% 0.0 mm 0.00 W/m2
23:25 2.6 °C 1.6 °C 1026.3 hPa Calm     93% 0.0 mm 0.00 W/m2
23:30 2.5 °C 1.5 °C 1026.3 hPa Calm     93% 0.0 mm 0.00 W/m2
23:35 2.4 °C 1.4 °C 1026.3 hPa Calm     93% 0.0 mm 0.00 W/m2
23:40 2.4 °C 1.4 °C 1026.3 hPa Calm     93% 0.0 mm 0.00 W/m2
23:45 2.3 °C 1.3 °C 1026.0 hPa Calm     93% 0.0 mm 0.00 W/m2
23:50 2.3 °C 1.3 °C 1026.0 hPa Calm     93% 0.0 mm 0.00 W/m2
23:55 2.3 °C 1.3 °C 1026.0 hPa Calm     93% 0.0 mm 0.00 W/m2